createdAt,value
2022-11-20T00:00:09.054Z,-0.7
2022-11-20T00:05:17.899Z,-0.7
2022-11-20T00:10:26.702Z,-0.7
2022-11-20T00:15:35.508Z,-0.8
2022-11-20T00:20:44.340Z,-0.9
2022-11-20T00:25:53.221Z,-0.9
2022-11-20T00:31:02.030Z,-1
2022-11-20T00:36:10.819Z,-1
2022-11-20T00:41:19.669Z,-0.9
2022-11-20T00:46:28.465Z,-0.9
2022-11-20T00:51:37.260Z,-0.9
2022-11-20T00:56:46.086Z,-0.9
2022-11-20T01:07:03.752Z,-1
2022-11-20T01:12:13.564Z,-1.1
2022-11-20T01:17:21.423Z,-1.1
2022-11-20T01:22:29.162Z,-1.1
2022-11-20T01:27:36.957Z,-1.1
2022-11-20T01:32:44.719Z,-1.1
2022-11-20T01:37:52.479Z,-1.1
2022-11-20T01:43:00.247Z,-1.1
2022-11-20T01:48:08.015Z,-1.1
2022-11-20T01:53:15.789Z,-1.1
2022-11-20T01:58:23.574Z,-1
2022-11-20T02:03:31.357Z,-1
2022-11-20T02:08:39.133Z,-0.9
2022-11-20T02:13:46.896Z,-0.9
2022-11-20T02:18:54.649Z,-0.8
2022-11-20T02:24:02.412Z,-0.8
2022-11-20T02:29:10.170Z,-1
2022-11-20T02:34:17.916Z,-1.1
2022-11-20T02:39:25.646Z,-1.1
2022-11-20T02:44:33.416Z,-1.1
2022-11-20T02:49:41.200Z,-1.1
2022-11-20T02:54:48.931Z,-1.1
2022-11-20T02:59:56.717Z,-1.1
2022-11-20T03:05:04.479Z,-1.1
2022-11-20T03:10:12.258Z,-1.2
2022-11-20T03:15:20.005Z,-1.2
2022-11-20T03:20:27.778Z,-1.1
2022-11-20T03:25:35.614Z,-1.2
2022-11-20T03:30:43.480Z,-1.2
2022-11-20T03:35:51.332Z,-1.2
2022-11-20T03:40:59.193Z,-1.3
2022-11-20T03:46:07.086Z,-1.4
2022-11-20T03:51:14.926Z,-1.5
2022-11-20T03:56:22.796Z,-1.6
2022-11-20T04:01:30.679Z,-1.6
2022-11-20T04:06:38.576Z,-1.8
2022-11-20T04:11:46.442Z,-1.9
2022-11-20T04:16:54.337Z,-2
2022-11-20T04:22:02.240Z,-2.2
2022-11-20T04:27:10.156Z,-2.2
2022-11-20T04:32:18.234Z,-2.2
2022-11-20T04:37:26.284Z,-2.2
2022-11-20T04:42:34.373Z,-2.2
2022-11-20T04:47:42.476Z,-2.3
2022-11-20T04:52:50.573Z,-2.3
2022-11-20T04:57:58.681Z,-2.2
2022-11-20T05:03:06.799Z,-2.3
2022-11-20T05:08:14.882Z,-2.3
2022-11-20T05:13:22.997Z,-2.4
2022-11-20T05:18:31.048Z,-2.2
2022-11-20T05:23:39.098Z,-2.1
2022-11-20T05:28:47.200Z,-2.1
2022-11-20T05:33:55.250Z,-2.1
2022-11-20T05:39:03.521Z,-2.1
2022-11-20T05:44:11.763Z,-2
2022-11-20T05:49:20.001Z,-1.9
2022-11-20T05:54:28.284Z,-1.8
2022-11-20T05:59:36.566Z,-1.7
2022-11-20T06:04:44.776Z,-1.7
2022-11-20T06:09:53.001Z,-1.7
2022-11-20T06:15:01.200Z,-1.8
2022-11-20T06:20:09.387Z,-1.8
2022-11-20T06:25:17.560Z,-1.8
2022-11-20T06:30:25.772Z,-1.8
2022-11-20T06:35:33.997Z,-1.8
2022-11-20T06:40:42.205Z,-1.8
2022-11-20T06:45:51.016Z,-1.8
2022-11-20T06:50:59.822Z,-1.8
2022-11-20T06:56:08.633Z,-1.9
2022-11-20T07:01:17.503Z,-1.9
2022-11-20T07:06:26.250Z,-1.8
2022-11-20T07:11:35.040Z,-1.8
2022-11-20T07:16:43.842Z,-1.7
2022-11-20T07:21:52.635Z,-1.6
2022-11-20T07:27:01.441Z,-1.6
2022-11-20T07:32:10.244Z,-1.4
2022-11-20T07:37:19.037Z,-1.4
2022-11-20T07:42:27.793Z,-1.3
2022-11-20T07:47:36.599Z,-1.2
2022-11-20T07:52:46.339Z,-1.1
2022-11-20T07:57:54.276Z,-1.1
2022-11-20T08:03:01.953Z,-1.2
2022-11-20T08:08:09.617Z,-1.2
2022-11-20T08:13:17.366Z,-0.3
2022-11-20T08:18:24.958Z,1.2
2022-11-20T08:23:32.603Z,2.7
2022-11-20T08:28:40.277Z,3
2022-11-20T08:33:47.919Z,3.8
2022-11-20T08:38:55.399Z,3.7
2022-11-20T08:44:02.913Z,2.3
2022-11-20T08:49:10.461Z,0.1
2022-11-20T08:54:18.010Z,0
2022-11-20T08:59:25.615Z,0
2022-11-20T09:04:33.262Z,0.2
2022-11-20T09:09:40.815Z,0.1
2022-11-20T09:14:48.403Z,0
2022-11-20T09:19:55.791Z,0
2022-11-20T09:25:03.577Z,0.2
2022-11-20T09:30:11.107Z,0
2022-11-20T09:35:18.638Z,0
2022-11-20T09:40:26.000Z,0.1
2022-11-20T09:45:33.730Z,0.2
2022-11-20T09:50:41.327Z,0.3
2022-11-20T09:55:48.864Z,0.1
2022-11-20T10:00:56.509Z,0.1
2022-11-20T10:06:04.129Z,0.3
2022-11-20T10:11:11.737Z,0.3
2022-11-20T10:16:19.343Z,0.4
2022-11-20T10:21:27.121Z,0.5
2022-11-20T10:26:34.774Z,0.5
2022-11-20T10:31:42.457Z,0.7
2022-11-20T10:36:50.076Z,0.7
2022-11-20T10:41:57.716Z,0.7
2022-11-20T10:47:05.447Z,0.7
2022-11-20T10:52:13.112Z,0.7
2022-11-20T10:57:20.828Z,0.7
2022-11-20T11:02:28.473Z,0.8
2022-11-20T11:07:36.101Z,0.7
2022-11-20T11:12:43.817Z,0.8
2022-11-20T11:17:51.629Z,0.7
2022-11-20T11:22:59.408Z,0.9
2022-11-20T11:28:07.032Z,0.9
2022-11-20T11:33:15.001Z,1
2022-11-20T11:38:22.827Z,1
2022-11-20T11:43:30.589Z,1.1
2022-11-20T11:48:38.393Z,1.1
2022-11-20T11:53:46.149Z,1.3
2022-11-20T11:58:53.965Z,1.1
2022-11-20T12:04:01.809Z,1.1
2022-11-20T12:09:09.560Z,1
2022-11-20T12:14:17.308Z,0.8
2022-11-20T12:19:25.297Z,0.7
2022-11-20T12:24:33.356Z,0.7
2022-11-20T12:29:41.372Z,1
2022-11-20T12:34:49.450Z,1.4
2022-11-20T12:39:57.383Z,1.3
2022-11-20T12:45:05.387Z,1.2
2022-11-20T12:50:13.279Z,1.2
2022-11-20T12:55:21.288Z,1.4
2022-11-20T13:00:29.444Z,1.2
2022-11-20T13:05:37.426Z,1.5
2022-11-20T13:10:45.287Z,1.4
2022-11-20T13:15:53.376Z,1.6
2022-11-20T13:21:01.322Z,1.6
2022-11-20T13:26:09.996Z,1.7
2022-11-20T13:31:18.615Z,1.9
2022-11-20T13:36:27.332Z,1.8
2022-11-20T13:41:35.906Z,1.7
2022-11-20T13:46:44.592Z,1.9
2022-11-20T13:51:53.315Z,1.7
2022-11-20T13:57:02.001Z,1.7
2022-11-20T14:02:10.558Z,1.9
2022-11-20T14:07:19.232Z,2
2022-11-20T14:12:27.834Z,1.8
2022-11-20T14:17:36.485Z,2.3
2022-11-20T14:22:45.139Z,2.1
2022-11-20T14:27:53.693Z,1.8
2022-11-20T14:33:03.469Z,1.9
2022-11-20T14:38:12.920Z,1.4
2022-11-20T14:43:22.548Z,1.3
2022-11-20T14:48:30.240Z,1.2
2022-11-20T14:53:37.912Z,1.1
2022-11-20T14:58:45.612Z,0.9
2022-11-20T15:03:53.314Z,0.6
2022-11-20T15:09:01.138Z,0.5
2022-11-20T15:14:08.738Z,0.6
2022-11-20T15:19:16.571Z,0.6
2022-11-20T15:24:24.380Z,0.6
2022-11-20T15:29:32.133Z,0.7
2022-11-20T15:34:39.712Z,0.7
2022-11-20T15:39:47.547Z,0.6
2022-11-20T15:44:55.333Z,0.6
2022-11-20T15:50:03.154Z,0.6
2022-11-20T15:55:10.832Z,0.6
2022-11-20T16:00:18.617Z,0.6
2022-11-20T16:05:26.552Z,0.4
2022-11-20T16:10:34.268Z,0.4
2022-11-20T16:15:42.066Z,0.2
2022-11-20T16:20:49.839Z,0.2
2022-11-20T16:25:57.819Z,0.2
2022-11-20T16:31:05.547Z,0.2
2022-11-20T16:36:13.334Z,0.2
2022-11-20T16:41:21.173Z,0
2022-11-20T16:46:29.255Z,0
2022-11-20T16:51:36.958Z,0
2022-11-20T16:56:44.895Z,0.1
2022-11-20T17:01:52.875Z,0.1
2022-11-20T17:07:00.875Z,0
2022-11-20T17:12:08.910Z,0.1
2022-11-20T17:17:16.904Z,0.2
2022-11-20T17:22:24.885Z,0.3
2022-11-20T17:27:32.784Z,0.3
2022-11-20T17:32:40.757Z,0.3
2022-11-20T17:37:48.638Z,0.3
2022-11-20T17:42:56.578Z,0.2
2022-11-20T17:48:04.533Z,0.3
2022-11-20T17:53:12.517Z,0.3
2022-11-20T17:58:20.445Z,0.3
2022-11-20T18:03:28.559Z,0.2
2022-11-20T18:08:36.763Z,0.3
2022-11-20T18:13:44.874Z,0.3
2022-11-20T18:18:53.019Z,0.3
2022-11-20T18:24:01.179Z,0.2
2022-11-20T18:29:09.466Z,0.1
2022-11-20T18:34:17.629Z,0.1
2022-11-20T18:39:25.827Z,0.1
2022-11-20T18:44:33.816Z,0.1
2022-11-20T18:49:42.081Z,0.1
2022-11-20T18:54:50.111Z,0
2022-11-20T18:59:58.325Z,0
2022-11-20T19:05:06.457Z,-0.2
2022-11-20T19:10:15.442Z,-0.2
2022-11-20T19:15:24.037Z,-0.2
2022-11-20T19:20:33.049Z,-0.3
2022-11-20T19:25:41.803Z,-0.4
2022-11-20T19:30:50.606Z,-0.5
2022-11-20T19:35:59.487Z,-0.5
2022-11-20T19:41:08.228Z,-0.6
2022-11-20T19:46:17.198Z,-0.5
2022-11-20T19:51:25.800Z,-0.5
2022-11-20T19:56:34.684Z,-0.6
2022-11-20T20:01:43.647Z,-0.8
2022-11-20T20:06:52.296Z,-0.8
2022-11-20T20:12:01.279Z,-0.9
2022-11-20T20:17:11.181Z,-0.8
2022-11-20T20:22:18.916Z,-1
2022-11-20T20:27:26.699Z,-1.2
2022-11-20T20:32:34.447Z,-1.5
2022-11-20T20:37:42.192Z,-2
2022-11-20T20:42:50.030Z,-2.1
2022-11-20T20:47:57.891Z,-2.5
2022-11-20T20:53:05.641Z,-2.8
2022-11-20T20:58:13.449Z,-2.9
2022-11-20T21:03:21.349Z,-3.2
2022-11-20T21:08:29.246Z,-3.5
2022-11-20T21:13:37.147Z,-3.4
2022-11-20T21:18:45.038Z,-3.3
2022-11-20T21:23:52.923Z,-3.1
2022-11-20T21:29:00.833Z,-2.9
2022-11-20T21:34:08.699Z,-2.6
2022-11-20T21:39:16.595Z,-2.5
2022-11-20T21:44:24.448Z,-2.3
2022-11-20T21:49:32.298Z,-2.2
2022-11-20T21:54:40.167Z,-2
2022-11-20T21:59:48.031Z,-2
2022-11-20T22:04:55.858Z,-1.7
2022-11-20T22:10:03.675Z,-1.6
2022-11-20T22:15:11.479Z,-1.6
2022-11-20T22:20:19.274Z,-1.4
2022-11-20T22:25:27.078Z,-1.2
2022-11-20T22:30:34.952Z,-1.1
2022-11-20T22:35:42.835Z,-1.1
2022-11-20T22:40:50.731Z,-1.2
2022-11-20T22:45:58.602Z,-1.2
2022-11-20T22:51:06.485Z,-1.1
2022-11-20T22:56:14.323Z,-1.1
2022-11-20T23:01:22.203Z,-1.1
2022-11-20T23:06:30.066Z,-1.1
2022-11-20T23:11:37.957Z,-1.1
2022-11-20T23:16:45.835Z,-1.1
2022-11-20T23:21:53.676Z,-1.1
2022-11-20T23:27:01.599Z,-1
2022-11-20T23:32:09.497Z,-1
2022-11-20T23:37:17.516Z,-1
2022-11-20T23:42:25.531Z,-1
2022-11-20T23:47:33.558Z,-0.9
2022-11-20T23:52:41.571Z,-1
2022-11-20T23:57:49.538Z,-1
